sensor_id;sensor_type;location;lat;lon;timestamp;pressure;altitude;pressure_sealevel;temperature;humidity
68859;BME280;55864;49.238;8.092;2023-07-30T00:01:44;98906.97;;;18.67;97.62
68859;BME280;55864;49.238;8.092;2023-07-30T00:03:45;98902.63;;;18.86;96.93
68859;BME280;55864;49.238;8.092;2023-07-30T00:05:51;98908.94;;;19.05;95.56
68859;BME280;55864;49.238;8.092;2023-07-30T00:07:52;98902.88;;;18.71;97.20
68859;BME280;55864;49.238;8.092;2023-07-30T00:09:53;98904.25;;;18.87;95.41
68859;BME280;55864;49.238;8.092;2023-07-30T00:11:53;98901.81;;;18.86;95.81
68859;BME280;55864;49.238;8.092;2023-07-30T00:13:54;98903.69;;;18.72;96.50
68859;BME280;55864;49.238;8.092;2023-07-30T00:15:54;98906.53;;;18.84;96.39
68859;BME280;55864;49.238;8.092;2023-07-30T00:17:56;98904.88;;;18.96;95.08
68859;BME280;55864;49.238;8.092;2023-07-30T00:19:56;98900.94;;;19.11;93.28
68859;BME280;55864;49.238;8.092;2023-07-30T00:21:57;98902.59;;;19.06;90.14
68859;BME280;55864;49.238;8.092;2023-07-30T00:23:57;98906.91;;;18.94;90.46
68859;BME280;55864;49.238;8.092;2023-07-30T00:25:58;98906.25;;;19.11;90.17
68859;BME280;55864;49.238;8.092;2023-07-30T00:27:58;98911.38;;;19.13;90.28
68859;BME280;55864;49.238;8.092;2023-07-30T00:29:59;98900.22;;;19.29;90.05
68859;BME280;55864;49.238;8.092;2023-07-30T00:32:00;98902.72;;;19.30;89.09
68859;BME280;55864;49.238;8.092;2023-07-30T00:34:02;98903.75;;;19.36;88.29
68859;BME280;55864;49.238;8.092;2023-07-30T00:36:03;98907.22;;;19.30;88.67
68859;BME280;55864;49.238;8.092;2023-07-30T00:38:03;98915.19;;;19.30;89.55
68859;BME280;55864;49.238;8.092;2023-07-30T00:40:05;98920.91;;;19.40;88.75
68859;BME280;55864;49.238;8.092;2023-07-30T00:42:06;98910.69;;;19.30;89.43
68859;BME280;55864;49.238;8.092;2023-07-30T00:44:06;98910.72;;;19.24;89.71
68859;BME280;55864;49.238;8.092;2023-07-30T00:46:07;98920.50;;;19.43;89.44
68859;BME280;55864;49.238;8.092;2023-07-30T00:48:09;98914.78;;;19.39;89.41
68859;BME280;55864;49.238;8.092;2023-07-30T00:50:13;98913.13;;;19.38;89.57
68859;BME280;55864;49.238;8.092;2023-07-30T00:52:15;98920.91;;;19.46;89.86
68859;BME280;55864;49.238;8.092;2023-07-30T00:54:16;98919.69;;;19.42;89.97
68859;BME280;55864;49.238;8.092;2023-07-30T00:56:17;98924.47;;;19.65;89.06
68859;BME280;55864;49.238;8.092;2023-07-30T00:58:18;98930.81;;;19.70;88.04
68859;BME280;55864;49.238;8.092;2023-07-30T01:00:20;98928.41;;;19.62;88.32
68859;BME280;55864;49.238;8.092;2023-07-30T01:02:21;98932.47;;;19.72;87.98
68859;BME280;55864;49.238;8.092;2023-07-30T01:04:22;98933.53;;;19.64;87.97
68859;BME280;55864;49.238;8.092;2023-07-30T01:06:24;98935.16;;;19.65;88.22
68859;BME280;55864;49.238;8.092;2023-07-30T01:08:24;98928.81;;;19.59;88.24
68859;BME280;55864;49.238;8.092;2023-07-30T01:10:25;98935.66;;;19.42;89.44
68859;BME280;55864;49.238;8.092;2023-07-30T01:12:28;98925.19;;;19.47;88.87
68859;BME280;55864;49.238;8.092;2023-07-30T01:14:30;98934.38;;;19.51;88.54
68859;BME280;55864;49.238;8.092;2023-07-30T01:16:32;98937.31;;;19.43;89.26
68859;BME280;55864;49.238;8.092;2023-07-30T01:18:32;98940.16;;;19.42;89.19
68859;BME280;55864;49.238;8.092;2023-07-30T01:20:33;98949.13;;;19.60;88.11
68859;BME280;55864;49.238;8.092;2023-07-30T01:22:35;98950.63;;;19.43;88.99
68859;BME280;55864;49.238;8.092;2023-07-30T01:24:35;98955.69;;;19.58;88.21
68859;BME280;55864;49.238;8.092;2023-07-30T01:26:39;98955.31;;;19.48;88.81
68859;BME280;55864;49.238;8.092;2023-07-30T01:28:46;98957.75;;;19.56;88.29
68859;BME280;55864;49.238;8.092;2023-07-30T01:30:49;98955.63;;;19.64;87.83
68859;BME280;55864;49.238;8.092;2023-07-30T01:32:51;98959.41;;;19.50;88.05
68859;BME280;55864;49.238;8.092;2023-07-30T01:34:54;98964.56;;;19.45;88.72
68859;BME280;55864;49.238;8.092;2023-07-30T01:36:56;98957.53;;;19.57;88.35
68859;BME280;55864;49.238;8.092;2023-07-30T01:38:59;98954.41;;;19.67;87.78
68859;BME280;55864;49.238;8.092;2023-07-30T01:41:00;98964.84;;;19.75;86.29
68859;BME280;55864;49.238;8.092;2023-07-30T01:43:01;98963.38;;;19.79;86.63
68859;BME280;55864;49.238;8.092;2023-07-30T01:45:01;98968.66;;;19.86;85.83
68859;BME280;55864;49.238;8.092;2023-07-30T01:47:03;98963.84;;;19.63;86.32
68859;BME280;55864;49.238;8.092;2023-07-30T01:49:04;98960.56;;;19.67;86.88
68859;BME280;55864;49.238;8.092;2023-07-30T01:51:05;98957.50;;;19.64;87.00
68859;BME280;55864;49.238;8.092;2023-07-30T01:53:05;98961.34;;;19.75;86.69
68859;BME280;55864;49.238;8.092;2023-07-30T01:55:08;98962.16;;;19.75;86.39
68859;BME280;55864;49.238;8.092;2023-07-30T01:57:09;98970.22;;;19.62;87.13
68859;BME280;55864;49.238;8.092;2023-07-30T01:59:10;98959.41;;;19.50;88.05
68859;BME280;55864;49.238;8.092;2023-07-30T02:01:11;98958.56;;;19.56;87.97
68859;BME280;55864;49.238;8.092;2023-07-30T02:03:11;98961.78;;;19.65;87.27
68859;BME280;55864;49.238;8.092;2023-07-30T02:05:12;98953.03;;;19.58;87.27
68859;BME280;55864;49.238;8.092;2023-07-30T02:07:15;98955.47;;;19.59;87.68
68859;BME280;55864;49.238;8.092;2023-07-30T02:09:15;98953.19;;;19.63;87.21
68859;BME280;55864;49.238;8.092;2023-07-30T02:11:17;98956.91;;;19.55;87.97
68859;BME280;55864;49.238;8.092;2023-07-30T02:13:18;98959.78;;;19.60;87.69
68859;BME280;55864;49.238;8.092;2023-07-30T02:15:18;98960.81;;;19.59;87.75
68859;BME280;55864;49.238;8.092;2023-07-30T02:17:19;98966.41;;;19.38;88.63
68859;BME280;55864;49.238;8.092;2023-07-30T02:19:19;98975.03;;;19.27;89.83
68859;BME280;55864;49.238;8.092;2023-07-30T02:21:20;98975.31;;;19.00;92.62
68859;BME280;55864;49.238;8.092;2023-07-30T02:23:20;98976.34;;;18.92;93.69
68859;BME280;55864;49.238;8.092;2023-07-30T02:25:21;98971.56;;;19.20;92.08
68859;BME280;55864;49.238;8.092;2023-07-30T02:27:23;98969.91;;;19.19;91.72
68859;BME280;55864;49.238;8.092;2023-07-30T02:29:24;98976.34;;;18.92;94.10
68859;BME280;55864;49.238;8.092;2023-07-30T02:31:24;98980.22;;;18.83;96.18
68859;BME280;55864;49.238;8.092;2023-07-30T02:33:25;98977.78;;;18.75;96.66
68859;BME280;55864;49.238;8.092;2023-07-30T02:35:25;98984.53;;;18.77;96.93
68859;BME280;55864;49.238;8.092;2023-07-30T02:37:26;98979.22;;;18.71;97.92
68859;BME280;55864;49.238;8.092;2023-07-30T02:39:26;98979.63;;;18.68;98.11
68859;BME280;55864;49.238;8.092;2023-07-30T02:41:27;98978.19;;;18.59;99.80
68859;BME280;55864;49.238;8.092;2023-07-30T02:43:29;98985.34;;;18.45;100.00
68859;BME280;55864;49.238;8.092;2023-07-30T02:45:29;98977.16;;;18.66;100.00
68859;BME280;55864;49.238;8.092;2023-07-30T02:47:30;98979.03;;;18.66;100.00
68859;BME280;55864;49.238;8.092;2023-07-30T02:49:31;98975.97;;;18.56;100.00
68859;BME280;55864;49.238;8.092;2023-07-30T02:51:31;98980.81;;;18.33;100.00
68859;BME280;55864;49.238;8.092;2023-07-30T02:53:32;98991.25;;;18.41;100.00
68859;BME280;55864;49.238;8.092;2023-07-30T02:55:32;98986.38;;;18.51;100.00
68859;BME280;55864;49.238;8.092;2023-07-30T02:57:33;98983.31;;;18.60;100.00
68859;BME280;55864;49.238;8.092;2023-07-30T02:59:35;98979.63;;;18.74;99.46
68859;BME280;55864;49.238;8.092;2023-07-30T03:01:35;98980.47;;;18.75;99.03
68859;BME280;55864;49.238;8.092;2023-07-30T03:03:36;98970.81;;;18.81;98.61
68859;BME280;55864;49.238;8.092;2023-07-30T03:05:36;98978.81;;;18.81;99.28
68859;BME280;55864;49.238;8.092;2023-07-30T03:07:38;98972.84;;;18.92;97.82
68859;BME280;55864;49.238;8.092;2023-07-30T03:09:38;98979.38;;;19.02;97.19
68859;BME280;55864;49.238;8.092;2023-07-30T03:11:39;98982.84;;;19.22;95.42
68859;BME280;55864;49.238;8.092;2023-07-30T03:13:39;98976.91;;;19.20;95.29
68859;BME280;55864;49.238;8.092;2023-07-30T03:15:41;98984.09;;;19.13;94.55
68859;BME280;55864;49.238;8.092;2023-07-30T03:17:42;98979.75;;;19.25;94.17
68859;BME280;55864;49.238;8.092;2023-07-30T03:19:42;98981.78;;;19.30;93.88
68859;BME280;55864;49.238;8.092;2023-07-30T03:21:43;98977.91;;;19.32;92.94
68859;BME280;55864;49.238;8.092;2023-07-30T03:23:43;98985.88;;;19.45;91.79
68859;BME280;55864;49.238;8.092;2023-07-30T03:25:44;98989.56;;;19.44;91.10
68859;BME280;55864;49.238;8.092;2023-07-30T03:27:44;98990.59;;;19.43;91.87
68859;BME280;55864;49.238;8.092;2023-07-30T03:29:45;98993.84;;;19.52;90.73
68859;BME280;55864;49.238;8.092;2023-07-30T03:31:47;98991.81;;;19.41;91.60
68859;BME280;55864;49.238;8.092;2023-07-30T03:33:47;98996.31;;;19.47;90.91
68859;BME280;55864;49.238;8.092;2023-07-30T03:35:48;98995.50;;;19.27;91.94
68859;BME280;55864;49.238;8.092;2023-07-30T03:37:48;98996.94;;;19.29;92.83
68859;BME280;55864;49.238;8.092;2023-07-30T03:39:49;98996.72;;;19.44;92.00
68859;BME280;55864;49.238;8.092;2023-07-30T03:41:49;99003.69;;;19.45;91.84
68859;BME280;55864;49.238;8.092;2023-07-30T03:43:50;99001.88;;;19.45;91.79
68859;BME280;55864;49.238;8.092;2023-07-30T03:45:50;99010.25;;;19.42;91.47
68859;BME280;55864;49.238;8.092;2023-07-30T03:47:52;99015.19;;;19.32;92.32
68859;BME280;55864;49.238;8.092;2023-07-30T03:49:53;99025.41;;;19.29;93.78
68859;BME280;55864;49.238;8.092;2023-07-30T03:51:53;99022.34;;;19.45;93.08
68859;BME280;55864;49.238;8.092;2023-07-30T03:53:54;99019.69;;;19.38;93.49
68859;BME280;55864;49.238;8.092;2023-07-30T03:55:55;99024.00;;;19.26;93.58
68859;BME280;55864;49.238;8.092;2023-07-30T03:57:55;99028.28;;;19.47;92.63
68859;BME280;55864;49.238;8.092;2023-07-30T03:59:56;99022.34;;;19.25;94.26
68859;BME280;55864;49.238;8.092;2023-07-30T04:01:56;99026.25;;;19.29;93.70
68859;BME280;55864;49.238;8.092;2023-07-30T04:03:58;99016.19;;;19.31;93.59
68859;BME280;55864;49.238;8.092;2023-07-30T04:05:59;99013.13;;;19.41;92.55
68859;BME280;55864;49.238;8.092;2023-07-30T04:08:00;99000.81;;;19.53;90.96
68859;BME280;55864;49.238;8.092;2023-07-30T04:10:01;99008.81;;;19.40;91.58
68859;BME280;55864;49.238;8.092;2023-07-30T04:12:01;98998.94;;;19.53;90.29
68859;BME280;55864;49.238;8.092;2023-07-30T04:14:02;98999.59;;;19.42;91.41
68859;BME280;55864;49.238;8.092;2023-07-30T04:16:03;98992.41;;;19.49;91.09
68859;BME280;55864;49.238;8.092;2023-07-30T04:18:03;98998.94;;;19.53;90.80
68859;BME280;55864;49.238;8.092;2023-07-30T04:20:07;99002.09;;;19.37;92.39
68859;BME280;55864;49.238;8.092;2023-07-30T04:22:08;99011.09;;;19.23;93.69
68859;BME280;55864;49.238;8.092;2023-07-30T04:24:08;99014.41;;;19.32;93.04
68859;BME280;55864;49.238;8.092;2023-07-30T04:26:09;99021.38;;;19.07;94.47
68859;BME280;55864;49.238;8.092;2023-07-30T04:28:09;99027.09;;;19.10;94.23
68859;BME280;55864;49.238;8.092;2023-07-30T04:30:11;99026.25;;;19.10;94.11
68859;BME280;55864;49.238;8.092;2023-07-30T04:32:12;99032.00;;;19.26;92.92
68859;BME280;55864;49.238;8.092;2023-07-30T04:34:12;99044.91;;;19.16;94.13
68859;BME280;55864;49.238;8.092;2023-07-30T04:36:14;99053.09;;;19.08;95.26
68859;BME280;55864;49.238;8.092;2023-07-30T04:38:16;99045.09;;;19.21;94.66
68859;BME280;55864;49.238;8.092;2023-07-30T04:40:17;99044.50;;;19.45;93.39
68859;BME280;55864;49.238;8.092;2023-07-30T04:42:17;99054.91;;;19.53;91.94
68859;BME280;55864;49.238;8.092;2023-07-30T04:44:18;99053.88;;;19.54;91.65
68859;BME280;55864;49.238;8.092;2023-07-30T04:46:19;99046.06;;;19.59;90.93
68859;BME280;55864;49.238;8.092;2023-07-30T04:48:20;99048.75;;;19.59;90.53
68859;BME280;55864;49.238;8.092;2023-07-30T04:50:20;99042.81;;;19.57;89.56
68859;BME280;55864;49.238;8.092;2023-07-30T04:52:22;99047.91;;;19.59;89.20
68859;BME280;55864;49.238;8.092;2023-07-30T04:54:23;99045.25;;;19.59;89.20
68859;BME280;55864;49.238;8.092;2023-07-30T04:56:24;99043.44;;;19.46;89.14
68859;BME280;55864;49.238;8.092;2023-07-30T04:58:24;99047.56;;;19.49;88.67
68859;BME280;55864;49.238;8.092;2023-07-30T05:00:25;99049.38;;;19.48;88.98
68859;BME280;55864;49.238;8.092;2023-07-30T05:02:26;99053.91;;;19.41;89.63
68859;BME280;55864;49.238;8.092;2023-07-30T05:04:26;99047.34;;;19.50;88.82
68859;BME280;55864;49.238;8.092;2023-07-30T05:06:27;99045.91;;;19.54;88.55
68859;BME280;55864;49.238;8.092;2023-07-30T05:08:28;99038.91;;;19.53;88.83
68859;BME280;55864;49.238;8.092;2023-07-30T05:10:29;99046.28;;;19.51;89.56
68859;BME280;55864;49.238;8.092;2023-07-30T05:12:29;99050.66;;;19.33;90.92
68859;BME280;55864;49.238;8.092;2023-07-30T05:14:30;99057.81;;;19.45;90.56
68859;BME280;55864;49.238;8.092;2023-07-30T05:16:30;99058.19;;;19.23;92.06
68859;BME280;55864;49.238;8.092;2023-07-30T05:18:31;99061.47;;;19.31;91.96
68859;BME280;55864;49.238;8.092;2023-07-30T05:20:32;99055.97;;;19.33;92.23
68859;BME280;55864;49.238;8.092;2023-07-30T05:22:32;99043.44;;;19.46;91.54
68859;BME280;55864;49.238;8.092;2023-07-30T05:24:34;99040.59;;;19.35;92.43
68859;BME280;55864;49.238;8.092;2023-07-30T05:26:35;99035.44;;;19.53;92.01
68859;BME280;55864;49.238;8.092;2023-07-30T05:28:35;99025.81;;;19.52;91.98
68859;BME280;55864;49.238;8.092;2023-07-30T05:30:36;99028.91;;;19.29;93.07
68859;BME280;55864;49.238;8.092;2023-07-30T05:32:36;99032.19;;;19.25;93.86
68859;BME280;55864;49.238;8.092;2023-07-30T05:34:37;99030.56;;;19.04;95.85
68859;BME280;55864;49.238;8.092;2023-07-30T05:36:37;99042.47;;;18.95;97.59
68859;BME280;55864;49.238;8.092;2023-07-30T05:38:38;99055.59;;;19.03;97.71
68859;BME280;55864;49.238;8.092;2023-07-30T05:40:41;99048.81;;;19.14;97.83
68859;BME280;55864;49.238;8.092;2023-07-30T05:42:42;99052.09;;;19.09;98.34
68859;BME280;55864;49.238;8.092;2023-07-30T05:44:42;99052.28;;;19.21;97.36
68859;BME280;55864;49.238;8.092;2023-07-30T05:46:43;99054.53;;;19.37;95.51
68859;BME280;55864;49.238;8.092;2023-07-30T05:48:43;99052.22;;;19.53;94.98
68859;BME280;55864;49.238;8.092;2023-07-30T05:50:44;99052.41;;;19.65;95.18
68859;BME280;55864;49.238;8.092;2023-07-30T05:52:44;99052.00;;;19.61;94.63
68859;BME280;55864;49.238;8.092;2023-07-30T05:54:45;99043.78;;;19.69;93.94
68859;BME280;55864;49.238;8.092;2023-07-30T05:56:47;99036.47;;;19.58;94.91
68859;BME280;55864;49.238;8.092;2023-07-30T05:58:47;99047.47;;;19.68;92.98
68859;BME280;55864;49.238;8.092;2023-07-30T06:00:48;99049.91;;;19.77;92.95
68859;BME280;55864;49.238;8.092;2023-07-30T06:02:48;99055.28;;;19.70;92.04
68859;BME280;55864;49.238;8.092;2023-07-30T06:04:49;99054.25;;;19.71;92.46
68859;BME280;55864;49.238;8.092;2023-07-30T06:06:49;99052.28;;;19.98;92.20
68859;BME280;55864;49.238;8.092;2023-07-30T06:08:50;99055.41;;;19.88;92.13
68859;BME280;55864;49.238;8.092;2023-07-30T06:10:50;99049.00;;;20.02;92.34
68859;BME280;55864;49.238;8.092;2023-07-30T06:12:52;99051.50;;;19.91;92.42
68859;BME280;55864;49.238;8.092;2023-07-30T06:14:53;99057.13;;;19.69;91.73
68859;BME280;55864;49.238;8.092;2023-07-30T06:16:53;99060.19;;;19.66;92.08
68859;BME280;55864;49.238;8.092;2023-07-30T06:18:54;99065.47;;;19.86;91.49
68859;BME280;55864;49.238;8.092;2023-07-30T06:20:55;99061.63;;;19.76;91.51
68859;BME280;55864;49.238;8.092;2023-07-30T06:22:55;99064.41;;;19.87;91.22
68859;BME280;55864;49.238;8.092;2023-07-30T06:24:56;99071.25;;;19.77;92.69
68859;BME280;55864;49.238;8.092;2023-07-30T06:26:56;99072.03;;;19.84;93.07
68859;BME280;55864;49.238;8.092;2023-07-30T06:28:58;99071.56;;;20.00;91.75
68859;BME280;55864;49.238;8.092;2023-07-30T06:30:59;99067.31;;;19.86;91.99
68859;BME280;55864;49.238;8.092;2023-07-30T06:33:00;99061.41;;;19.70;94.00
68859;BME280;55864;49.238;8.092;2023-07-30T06:35:01;99064.72;;;19.59;95.12
68859;BME280;55864;49.238;8.092;2023-07-30T06:37:01;99074.34;;;19.67;95.38
68859;BME280;55864;49.238;8.092;2023-07-30T06:39:02;99075.22;;;20.05;93.45
68859;BME280;55864;49.238;8.092;2023-07-30T06:41:03;99071.06;;;20.16;91.32
68859;BME280;55864;49.238;8.092;2023-07-30T06:43:03;99077.38;;;20.34;90.63
68859;BME280;55864;49.238;8.092;2023-07-30T06:45:07;99083.81;;;20.20;89.42
68859;BME280;55864;49.238;8.092;2023-07-30T06:47:07;99089.97;;;20.14;89.10
68859;BME280;55864;49.238;8.092;2023-07-30T06:49:09;99082.38;;;20.18;89.32
68859;BME280;55864;49.238;8.092;2023-07-30T06:51:10;99089.16;;;20.20;89.89
68859;BME280;55864;49.238;8.092;2023-07-30T06:53:11;99095.94;;;20.10;89.33
68859;BME280;55864;49.238;8.092;2023-07-30T06:55:11;99091.59;;;20.15;88.44
68859;BME280;55864;49.238;8.092;2023-07-30T06:57:12;99103.03;;;20.29;87.51
68859;BME280;55864;49.238;8.092;2023-07-30T06:59:12;99103.72;;;20.11;86.59
68859;BME280;55864;49.238;8.092;2023-07-30T07:03:15;99107.03;;;20.07;86.53
68859;BME280;55864;49.238;8.092;2023-07-30T07:05:15;99108.25;;;20.11;87.05
68859;BME280;55864;49.238;8.092;2023-07-30T07:07:16;99117.06;;;20.05;85.93
68859;BME280;55864;49.238;8.092;2023-07-30T07:09:17;99113.00;;;19.96;84.76
68859;BME280;55864;49.238;8.092;2023-07-30T07:11:17;99117.78;;;19.81;85.25
68859;BME280;55864;49.238;8.092;2023-07-30T07:13:18;99119.63;;;19.87;84.03
68859;BME280;55864;49.238;8.092;2023-07-30T07:15:18;99116.72;;;19.82;83.30
68859;BME280;55864;49.238;8.092;2023-07-30T07:17:20;99118.38;;;19.83;83.82
68859;BME280;55864;49.238;8.092;2023-07-30T07:19:21;99122.91;;;19.82;82.88
68859;BME280;55864;49.238;8.092;2023-07-30T07:21:22;99111.63;;;19.87;82.54
68859;BME280;55864;49.238;8.092;2023-07-30T07:23:22;99119.63;;;19.80;82.67
68859;BME280;55864;49.238;8.092;2023-07-30T07:25:23;99117.97;;;19.86;82.74
68859;BME280;55864;49.238;8.092;2023-07-30T07:27:23;99113.84;;;19.90;82.30
68859;BME280;55864;49.238;8.092;2023-07-30T07:29:24;99112.00;;;19.90;82.15
68859;BME280;55864;49.238;8.092;2023-07-30T07:31:25;99116.69;;;20.01;82.24
68859;BME280;55864;49.238;8.092;2023-07-30T07:33:27;99111.91;;;20.16;81.95
68859;BME280;55864;49.238;8.092;2023-07-30T07:35:27;99117.75;;;20.44;79.46
68859;BME280;55864;49.238;8.092;2023-07-30T07:37:28;99114.66;;;20.47;79.15
68859;BME280;55864;49.238;8.092;2023-07-30T07:39:29;99116.47;;;20.53;78.68
68859;BME280;55864;49.238;8.092;2023-07-30T07:41:29;99120.78;;;20.54;78.87
68859;BME280;55864;49.238;8.092;2023-07-30T07:43:30;99122.25;;;20.44;77.66
68859;BME280;55864;49.238;8.092;2023-07-30T07:45:30;99125.19;;;20.36;78.51
68859;BME280;55864;49.238;8.092;2023-07-30T07:47:31;99126.41;;;20.40;77.59
68859;BME280;55864;49.238;8.092;2023-07-30T07:49:33;99128.94;;;20.15;76.96
68859;BME280;55864;49.238;8.092;2023-07-30T07:51:34;99136.13;;;20.08;75.42
68859;BME280;55864;49.238;8.092;2023-07-30T07:53:34;99143.56;;;20.00;74.91
68859;BME280;55864;49.238;8.092;2023-07-30T07:55:35;99145.19;;;20.01;75.31
68859;BME280;55864;49.238;8.092;2023-07-30T07:57:35;99129.81;;;20.03;74.58
68859;BME280;55864;49.238;8.092;2023-07-30T07:59:36;99138.28;;;19.87;73.05
68859;BME280;55864;49.238;8.092;2023-07-30T08:01:36;99136.63;;;19.86;74.17
68859;BME280;55864;49.238;8.092;2023-07-30T08:03:37;99126.16;;;19.91;74.57
68859;BME280;55864;49.238;8.092;2023-07-30T08:05:39;99141.72;;;19.94;75.11
68859;BME280;55864;49.238;8.092;2023-07-30T08:07:39;99137.78;;;20.09;73.43
68859;BME280;55864;49.238;8.092;2023-07-30T08:09:40;99137.56;;;20.17;73.96
68859;BME280;55864;49.238;8.092;2023-07-30T08:11:41;99147.56;;;20.35;73.26
68859;BME280;55864;49.238;8.092;2023-07-30T08:13:41;99150.00;;;20.36;73.11
68859;BME280;55864;49.238;8.092;2023-07-30T08:15:42;99147.56;;;20.35;72.66
68859;BME280;55864;49.238;8.092;2023-07-30T08:17:42;99138.53;;;20.36;73.30
68859;BME280;55864;49.238;8.092;2023-07-30T08:19:43;99151.66;;;20.37;72.95
68859;BME280;55864;49.238;8.092;2023-07-30T08:21:45;99150.22;;;20.41;72.57
68859;BME280;55864;49.238;8.092;2023-07-30T08:23:46;99140.75;;;20.45;72.50
68859;BME280;55864;49.238;8.092;2023-07-30T08:25:47;99138.56;;;20.67;71.57
68859;BME280;55864;49.238;8.092;2023-07-30T08:27:47;99145.50;;;20.75;72.58
68859;BME280;55864;49.238;8.092;2023-07-30T08:29:48;99150.59;;;20.83;72.36
68859;BME280;55864;49.238;8.092;2023-07-30T08:31:48;99150.81;;;20.81;71.80
68859;BME280;55864;49.238;8.092;2023-07-30T08:33:49;99151.56;;;20.88;72.40
68859;BME280;55864;49.238;8.092;2023-07-30T08:35:50;99152.44;;;20.82;72.92
68859;BME280;55864;49.238;8.092;2023-07-30T08:37:52;99158.44;;;20.78;73.11
68859;BME280;55864;49.238;8.092;2023-07-30T08:39:52;99149.56;;;21.15;72.28
68859;BME280;55864;49.238;8.092;2023-07-30T08:41:53;99156.16;;;21.12;72.22
68859;BME280;55864;49.238;8.092;2023-07-30T08:43:54;99149.94;;;21.18;71.41
68859;BME280;55864;49.238;8.092;2023-07-30T08:45:54;99148.00;;;21.32;70.57
68859;BME280;55864;49.238;8.092;2023-07-30T08:47:55;99153.22;;;21.20;71.50
68859;BME280;55864;49.238;8.092;2023-07-30T08:49:56;99147.63;;;21.28;70.49
68859;BME280;55864;49.238;8.092;2023-07-30T08:51:57;99145.16;;;21.27;69.02
68859;BME280;55864;49.238;8.092;2023-07-30T08:54:00;99150.56;;;21.45;69.23
68859;BME280;55864;49.238;8.092;2023-07-30T08:56:01;99151.13;;;21.72;69.23
68859;BME280;55864;49.238;8.092;2023-07-30T08:58:03;99154.88;;;21.89;68.00
68859;BME280;55864;49.238;8.092;2023-07-30T09:00:06;99156.25;;;22.16;67.79
68859;BME280;55864;49.238;8.092;2023-07-30T09:02:13;99151.31;;;22.13;65.66
68859;BME280;55864;49.238;8.092;2023-07-30T09:04:18;99157.06;;;21.98;66.82
68859;BME280;55864;49.238;8.092;2023-07-30T09:06:18;99160.28;;;21.82;66.00
68859;BME280;55864;49.238;8.092;2023-07-30T09:08:19;99162.56;;;21.79;66.44
68859;BME280;55864;49.238;8.092;2023-07-30T09:10:22;99160.34;;;21.76;66.26
68859;BME280;55864;49.238;8.092;2023-07-30T09:12:26;99162.28;;;21.69;66.94
68859;BME280;55864;49.238;8.092;2023-07-30T09:14:26;99165.53;;;21.71;66.55
68859;BME280;55864;49.238;8.092;2023-07-30T09:16:27;99172.50;;;21.53;67.39
68859;BME280;55864;49.238;8.092;2023-07-30T09:18:27;99184.16;;;21.34;67.20
68859;BME280;55864;49.238;8.092;2023-07-30T09:20:28;99178.47;;;21.24;67.43
68859;BME280;55864;49.238;8.092;2023-07-30T09:22:36;99185.41;;;21.32;67.33
68859;BME280;55864;49.238;8.092;2023-07-30T09:24:41;99193.09;;;21.46;66.08
68859;BME280;55864;49.238;8.092;2023-07-30T09:26:45;99191.38;;;22.01;65.70
68859;BME280;55864;49.238;8.092;2023-07-30T09:28:46;99183.97;;;22.58;64.50
68859;BME280;55864;49.238;8.092;2023-07-30T09:30:49;99175.72;;;23.00;60.52
68859;BME280;55864;49.238;8.092;2023-07-30T09:32:51;99187.47;;;23.29;59.35
68859;BME280;55864;49.238;8.092;2023-07-30T09:34:52;99189.31;;;23.28;58.60
68859;BME280;55864;49.238;8.092;2023-07-30T09:36:54;99174.72;;;23.24;57.19
68859;BME280;55864;49.238;8.092;2023-07-30T09:38:54;99192.06;;;23.52;57.33
68859;BME280;55864;49.238;8.092;2023-07-30T09:41:00;99190.34;;;23.69;55.50
68859;BME280;55864;49.238;8.092;2023-07-30T09:43:03;99187.84;;;24.25;55.51
68859;BME280;55864;49.238;8.092;2023-07-30T09:45:04;99181.22;;;24.67;53.65
68859;BME280;55864;49.238;8.092;2023-07-30T09:47:05;99193.66;;;25.30;52.13
68859;BME280;55864;49.238;8.092;2023-07-30T09:49:08;99192.88;;;25.46;51.13
68859;BME280;55864;49.238;8.092;2023-07-30T09:51:09;99206.56;;;25.61;49.90
68859;BME280;55864;49.238;8.092;2023-07-30T09:53:10;99211.38;;;25.59;49.39
68859;BME280;55864;49.238;8.092;2023-07-30T09:55:11;99214.16;;;24.74;51.46
68859;BME280;55864;49.238;8.092;2023-07-30T09:57:12;99215.34;;;24.55;50.87
68859;BME280;55864;49.238;8.092;2023-07-30T09:59:14;99231.75;;;24.07;52.86
68859;BME280;55864;49.238;8.092;2023-07-30T10:01:15;99226.72;;;23.65;52.21
68859;BME280;55864;49.238;8.092;2023-07-30T10:03:17;99226.72;;;23.23;52.80
68859;BME280;55864;49.238;8.092;2023-07-30T10:05:19;99236.91;;;23.03;54.61
68859;BME280;55864;49.238;8.092;2023-07-30T10:07:22;99236.66;;;22.93;55.56
68859;BME280;55864;49.238;8.092;2023-07-30T10:09:26;99236.59;;;22.64;52.77
68859;BME280;55864;49.238;8.092;2023-07-30T10:11:29;99235.09;;;22.13;52.94
68859;BME280;55864;49.238;8.092;2023-07-30T10:13:30;99247.63;;;21.95;54.09
68859;BME280;55864;49.238;8.092;2023-07-30T10:15:35;99245.69;;;21.77;55.05
68859;BME280;55864;49.238;8.092;2023-07-30T10:17:35;99250.22;;;21.77;55.89
68859;BME280;55864;49.238;8.092;2023-07-30T10:19:36;99245.78;;;22.13;54.56
68859;BME280;55864;49.238;8.092;2023-07-30T10:21:42;99247.69;;;22.31;54.32
68859;BME280;55864;49.238;8.092;2023-07-30T10:23:46;99260.28;;;22.24;54.05
68859;BME280;55864;49.238;8.092;2023-07-30T10:25:48;99260.28;;;22.24;54.18
68859;BME280;55864;49.238;8.092;2023-07-30T10:27:52;99254.22;;;22.53;54.68
68859;BME280;55864;49.238;8.092;2023-07-30T10:30:08;99242.19;;;22.62;54.49
68859;BME280;55864;49.238;8.092;2023-07-30T10:32:10;99247.00;;;22.54;52.60
68859;BME280;55864;49.238;8.092;2023-07-30T10:34:10;99256.31;;;22.87;53.71
68859;BME280;55864;49.238;8.092;2023-07-30T10:36:11;99244.72;;;23.34;52.36
68859;BME280;55864;49.238;8.092;2023-07-30T10:38:22;99248.44;;;23.75;50.98
68859;BME280;55864;49.238;8.092;2023-07-30T10:40:27;99243.63;;;24.00;50.10
68859;BME280;55864;49.238;8.092;2023-07-30T10:42:33;99244.97;;;24.09;49.22
68859;BME280;55864;49.238;8.092;2023-07-30T10:44:34;99259.19;;;24.09;48.99